sensor_id;sensor_type;location;lat;lon;timestamp;P1;durP1;ratioP1;P2;durP2;ratioP2
49450;SDS011;35336;48.400;10.886;2023-02-18T00:00:11;3.40;;;1.37;;
49450;SDS011;35336;48.400;10.886;2023-02-18T00:00:30;1.80;;;1.30;;
49450;SDS011;35336;48.400;10.886;2023-02-18T00:00:45;2.50;;;1.40;;
49450;SDS011;35336;48.400;10.886;2023-02-18T00:01:00;3.23;;;1.30;;
49450;SDS011;35336;48.400;10.886;2023-02-18T00:01:18;3.20;;;1.40;;
49450;SDS011;35336;48.400;10.886;2023-02-18T00:01:33;2.45;;;1.27;;
49450;SDS011;35336;48.400;10.886;2023-02-18T00:01:49;1.90;;;1.20;;
49450;SDS011;35336;48.400;10.886;2023-02-18T00:02:04;2.75;;;1.40;;
49450;SDS011;35336;48.400;10.886;2023-02-18T00:02:19;3.63;;;1.40;;
49450;SDS011;35336;48.400;10.886;2023-02-18T00:02:35;2.90;;;1.23;;
49450;SDS011;35336;48.400;10.886;2023-02-18T00:02:50;2.47;;;1.20;;
49450;SDS011;35336;48.400;10.886;2023-02-18T00:03:05;2.60;;;1.30;;
49450;SDS011;35336;48.400;10.886;2023-02-18T00:03:21;2.63;;;1.30;;
49450;SDS011;35336;48.400;10.886;2023-02-18T00:03:36;2.53;;;1.25;;
49450;SDS011;35336;48.400;10.886;2023-02-18T00:03:52;2.40;;;1.30;;
49450;SDS011;35336;48.400;10.886;2023-02-18T00:04:08;2.15;;;1.10;;
49450;SDS011;35336;48.400;10.886;2023-02-18T00:04:23;2.53;;;1.10;;
49450;SDS011;35336;48.400;10.886;2023-02-18T00:04:39;3.25;;;1.17;;
49450;SDS011;35336;48.400;10.886;2023-02-18T00:04:54;2.43;;;1.10;;
49450;SDS011;35336;48.400;10.886;2023-02-18T00:05:10;1.20;;;1.03;;
49450;SDS011;35336;48.400;10.886;2023-02-18T00:05:25;1.83;;;1.17;;
49450;SDS011;35336;48.400;10.886;2023-02-18T00:05:43;2.80;;;1.08;;
49450;SDS011;35336;48.400;10.886;2023-02-18T00:05:58;2.10;;;1.00;;
49450;SDS011;35336;48.400;10.886;2023-02-18T00:06:15;2.10;;;1.13;;
49450;SDS011;35336;48.400;10.886;2023-02-18T00:06:33;2.35;;;1.20;;
49450;SDS011;35336;48.400;10.886;2023-02-18T00:06:50;3.65;;;1.20;;
49450;SDS011;35336;48.400;10.886;2023-02-18T00:07:05;3.28;;;1.10;;
49450;SDS011;35336;48.400;10.886;2023-02-18T00:07:20;1.87;;;1.10;;
49450;SDS011;35336;48.400;10.886;2023-02-18T00:07:36;2.03;;;1.10;;
49450;SDS011;35336;48.400;10.886;2023-02-18T00:07:53;1.60;;;1.10;;
49450;SDS011;35336;48.400;10.886;2023-02-18T00:08:08;1.90;;;1.10;;
49450;SDS011;35336;48.400;10.886;2023-02-18T00:08:23;2.17;;;1.17;;
49450;SDS011;35336;48.400;10.886;2023-02-18T00:08:39;1.70;;;1.03;;
49450;SDS011;35336;48.400;10.886;2023-02-18T00:08:55;1.98;;;0.90;;
49450;SDS011;35336;48.400;10.886;2023-02-18T00:09:11;3.63;;;1.10;;
49450;SDS011;35336;48.400;10.886;2023-02-18T00:09:26;3.40;;;1.10;;
49450;SDS011;35336;48.400;10.886;2023-02-18T00:09:42;1.33;;;0.90;;
49450;SDS011;35336;48.400;10.886;2023-02-18T00:09:57;2.33;;;1.00;;
49450;SDS011;35336;48.400;10.886;2023-02-18T00:10:14;2.93;;;1.10;;
49450;SDS011;35336;48.400;10.886;2023-02-18T00:10:29;1.92;;;1.00;;
49450;SDS011;35336;48.400;10.886;2023-02-18T00:10:45;5.03;;;1.52;;
49450;SDS011;35336;48.400;10.886;2023-02-18T00:11:00;4.07;;;1.43;;
49450;SDS011;35336;48.400;10.886;2023-02-18T00:11:16;2.23;;;0.93;;
49450;SDS011;35336;48.400;10.886;2023-02-18T00:11:33;2.55;;;1.10;;
49450;SDS011;35336;48.400;10.886;2023-02-18T00:11:50;1.60;;;1.00;;
49450;SDS011;35336;48.400;10.886;2023-02-18T00:12:05;3.03;;;0.90;;
49450;SDS011;35336;48.400;10.886;2023-02-18T00:12:20;2.70;;;0.83;;
49450;SDS011;35336;48.400;10.886;2023-02-18T00:12:36;2.35;;;1.10;;
49450;SDS011;35336;48.400;10.886;2023-02-18T00:12:51;3.93;;;1.10;;
49450;SDS011;35336;48.400;10.886;2023-02-18T00:13:07;4.68;;;1.27;;
49450;SDS011;35336;48.400;10.886;2023-02-18T00:13:22;4.93;;;1.50;;
49450;SDS011;35336;48.400;10.886;2023-02-18T00:13:37;3.07;;;1.10;;
49450;SDS011;35336;48.400;10.886;2023-02-18T00:13:54;2.53;;;1.23;;
49450;SDS011;35336;48.400;10.886;2023-02-18T00:14:12;1.92;;;1.02;;
49450;SDS011;35336;48.400;10.886;2023-02-18T00:14:28;1.50;;;0.90;;
49450;SDS011;35336;48.400;10.886;2023-02-18T00:14:43;1.30;;;1.00;;
49450;SDS011;35336;48.400;10.886;2023-02-18T00:14:59;1.40;;;1.00;;
49450;SDS011;35336;48.400;10.886;2023-02-18T00:15:14;2.20;;;1.23;;
49450;SDS011;35336;48.400;10.886;2023-02-18T00:15:29;2.10;;;1.20;;
49450;SDS011;35336;48.400;10.886;2023-02-18T00:15:45;1.00;;;0.90;;
49450;SDS011;35336;48.400;10.886;2023-02-18T00:16:01;1.60;;;0.90;;
49450;SDS011;35336;48.400;10.886;2023-02-18T00:16:17;2.47;;;1.10;;
49450;SDS011;35336;48.400;10.886;2023-02-18T00:16:33;4.30;;;1.15;;
49450;SDS011;35336;48.400;10.886;2023-02-18T00:16:48;3.83;;;1.00;;
49450;SDS011;35336;48.400;10.886;2023-02-18T00:17:03;2.27;;;1.10;;
49450;SDS011;35336;48.400;10.886;2023-02-18T00:17:19;2.47;;;1.20;;
49450;SDS011;35336;48.400;10.886;2023-02-18T00:17:34;1.60;;;1.00;;
49450;SDS011;35336;48.400;10.886;2023-02-18T00:17:49;1.20;;;0.87;;
49450;SDS011;35336;48.400;10.886;2023-02-18T00:18:05;4.43;;;1.20;;
49450;SDS011;35336;48.400;10.886;2023-02-18T00:18:21;4.88;;;1.20;;
49450;SDS011;35336;48.400;10.886;2023-02-18T00:18:36;2.20;;;1.00;;
49450;SDS011;35336;48.400;10.886;2023-02-18T00:18:56;2.00;;;1.10;;
49450;SDS011;35336;48.400;10.886;2023-02-18T00:19:16;2.25;;;1.10;;
49450;SDS011;35336;48.400;10.886;2023-02-18T00:19:33;1.85;;;1.00;;
49450;SDS011;35336;48.400;10.886;2023-02-18T00:19:49;1.50;;;0.90;;
49450;SDS011;35336;48.400;10.886;2023-02-18T00:20:05;1.87;;;1.10;;
49450;SDS011;35336;48.400;10.886;2023-02-18T00:20:21;1.58;;;1.08;;
49450;SDS011;35336;48.400;10.886;2023-02-18T00:20:37;1.67;;;0.90;;
49450;SDS011;35336;48.400;10.886;2023-02-18T00:20:53;1.50;;;0.90;;
49450;SDS011;35336;48.400;10.886;2023-02-18T00:21:08;1.60;;;1.00;;
49450;SDS011;35336;48.400;10.886;2023-02-18T00:21:24;1.97;;;1.17;;
49450;SDS011;35336;48.400;10.886;2023-02-18T00:21:41;1.92;;;1.00;;
49450;SDS011;35336;48.400;10.886;2023-02-18T00:21:57;2.95;;;0.95;;
49450;SDS011;35336;48.400;10.886;2023-02-18T00:22:12;3.23;;;1.00;;
49450;SDS011;35336;48.400;10.886;2023-02-18T00:22:27;2.50;;;0.90;;
49450;SDS011;35336;48.400;10.886;2023-02-18T00:22:43;3.80;;;1.17;;
49450;SDS011;35336;48.400;10.886;2023-02-18T00:22:58;3.27;;;1.20;;
49450;SDS011;35336;48.400;10.886;2023-02-18T00:23:13;2.08;;;1.10;;
49450;SDS011;35336;48.400;10.886;2023-02-18T00:23:29;2.20;;;1.20;;
49450;SDS011;35336;48.400;10.886;2023-02-18T00:23:44;1.85;;;1.20;;
49450;SDS011;35336;48.400;10.886;2023-02-18T00:24:00;1.53;;;1.10;;
49450;SDS011;35336;48.400;10.886;2023-02-18T00:24:15;1.57;;;1.00;;
49450;SDS011;35336;48.400;10.886;2023-02-18T00:24:31;1.70;;;0.93;;
49450;SDS011;35336;48.400;10.886;2023-02-18T00:24:46;2.10;;;0.90;;
49450;SDS011;35336;48.400;10.886;2023-02-18T00:25:01;3.27;;;0.90;;
49450;SDS011;35336;48.400;10.886;2023-02-18T00:25:17;2.55;;;0.85;;
49450;SDS011;35336;48.400;10.886;2023-02-18T00:25:32;2.07;;;0.87;;
49450;SDS011;35336;48.400;10.886;2023-02-18T00:25:47;2.55;;;1.08;;
49450;SDS011;35336;48.400;10.886;2023-02-18T00:26:07;2.00;;;1.10;;
49450;SDS011;35336;48.400;10.886;2023-02-18T00:26:24;1.40;;;1.10;;
49450;SDS011;35336;48.400;10.886;2023-02-18T00:26:40;1.70;;;1.10;;
49450;SDS011;35336;48.400;10.886;2023-02-18T00:26:56;1.58;;;1.00;;
49450;SDS011;35336;48.400;10.886;2023-02-18T00:27:11;1.40;;;0.90;;
49450;SDS011;35336;48.400;10.886;2023-02-18T00:27:26;1.10;;;0.80;;
49450;SDS011;35336;48.400;10.886;2023-02-18T00:27:42;2.00;;;1.00;;
49450;SDS011;35336;48.400;10.886;2023-02-18T00:27:57;2.47;;;0.90;;
49450;SDS011;35336;48.400;10.886;2023-02-18T00:28:12;2.13;;;0.70;;
49450;SDS011;35336;48.400;10.886;2023-02-18T00:28:28;1.60;;;0.90;;
49450;SDS011;35336;48.400;10.886;2023-02-18T00:28:44;1.75;;;1.10;;
49450;SDS011;35336;48.400;10.886;2023-02-18T00:29:00;3.20;;;1.20;;
49450;SDS011;35336;48.400;10.886;2023-02-18T00:29:17;2.60;;;1.00;;
49450;SDS011;35336;48.400;10.886;2023-02-18T00:29:33;1.77;;;1.00;;
49450;SDS011;35336;48.400;10.886;2023-02-18T00:29:49;1.40;;;0.90;;
49450;SDS011;35336;48.400;10.886;2023-02-18T00:30:07;1.98;;;0.80;;
49450;SDS011;35336;48.400;10.886;2023-02-18T00:30:23;4.28;;;0.93;;
49450;SDS011;35336;48.400;10.886;2023-02-18T00:30:39;3.23;;;0.97;;
49450;SDS011;35336;48.400;10.886;2023-02-18T00:30:55;2.38;;;0.90;;
49450;SDS011;35336;48.400;10.886;2023-02-18T00:31:14;2.77;;;0.97;;
49450;SDS011;35336;48.400;10.886;2023-02-18T00:31:33;2.72;;;1.00;;
49450;SDS011;35336;48.400;10.886;2023-02-18T00:31:49;2.60;;;1.10;;
49450;SDS011;35336;48.400;10.886;2023-02-18T00:32:04;1.45;;;0.90;;
49450;SDS011;35336;48.400;10.886;2023-02-18T00:32:20;1.47;;;0.90;;
49450;SDS011;35336;48.400;10.886;2023-02-18T00:32:35;1.40;;;0.90;;
49450;SDS011;35336;48.400;10.886;2023-02-18T00:32:50;0.90;;;0.80;;
49450;SDS011;35336;48.400;10.886;2023-02-18T00:33:06;1.20;;;0.90;;
49450;SDS011;35336;48.400;10.886;2023-02-18T00:33:21;1.50;;;1.07;;
49450;SDS011;35336;48.400;10.886;2023-02-18T00:33:37;1.45;;;1.13;;
49450;SDS011;35336;48.400;10.886;2023-02-18T00:33:52;1.60;;;1.00;;
49450;SDS011;35336;48.400;10.886;2023-02-18T00:34:08;1.63;;;0.90;;
49450;SDS011;35336;48.400;10.886;2023-02-18T00:34:25;2.15;;;0.95;;
49450;SDS011;35336;48.400;10.886;2023-02-18T00:34:40;3.08;;;1.10;;
49450;SDS011;35336;48.400;10.886;2023-02-18T00:34:56;3.43;;;1.20;;
49450;SDS011;35336;48.400;10.886;2023-02-18T00:35:11;4.10;;;1.10;;
49450;SDS011;35336;48.400;10.886;2023-02-18T00:35:26;3.10;;;1.00;;
49450;SDS011;35336;48.400;10.886;2023-02-18T00:35:41;1.40;;;1.10;;
49450;SDS011;35336;48.400;10.886;2023-02-18T00:36:00;1.70;;;1.20;;
49450;SDS011;35336;48.400;10.886;2023-02-18T00:36:18;1.80;;;0.85;;
49450;SDS011;35336;48.400;10.886;2023-02-18T00:36:34;1.58;;;0.77;;
49450;SDS011;35336;48.400;10.886;2023-02-18T00:36:50;1.30;;;0.80;;
49450;SDS011;35336;48.400;10.886;2023-02-18T00:37:05;1.20;;;0.88;;
49450;SDS011;35336;48.400;10.886;2023-02-18T00:37:20;1.70;;;0.93;;
49450;SDS011;35336;48.400;10.886;2023-02-18T00:37:36;2.00;;;1.00;;
49450;SDS011;35336;48.400;10.886;2023-02-18T00:37:51;4.07;;;1.10;;
49450;SDS011;35336;48.400;10.886;2023-02-18T00:38:06;4.60;;;1.00;;
49450;SDS011;35336;48.400;10.886;2023-02-18T00:38:22;3.43;;;1.00;;
49450;SDS011;35336;48.400;10.886;2023-02-18T00:38:37;3.07;;;1.10;;
49450;SDS011;35336;48.400;10.886;2023-02-18T00:38:54;2.38;;;1.17;;
49450;SDS011;35336;48.400;10.886;2023-02-18T00:39:11;2.08;;;1.02;;
49450;SDS011;35336;48.400;10.886;2023-02-18T00:39:26;2.75;;;1.10;;
49450;SDS011;35336;48.400;10.886;2023-02-18T00:39:42;2.17;;;1.00;;
49450;SDS011;35336;48.400;10.886;2023-02-18T00:39:57;1.40;;;0.80;;
49450;SDS011;35336;48.400;10.886;2023-02-18T00:40:12;1.92;;;0.80;;
49450;SDS011;35336;48.400;10.886;2023-02-18T00:40:28;2.27;;;0.80;;
49450;SDS011;35336;48.400;10.886;2023-02-18T00:40:43;2.70;;;0.93;;
49450;SDS011;35336;48.400;10.886;2023-02-18T00:40:58;3.10;;;0.90;;
49450;SDS011;35336;48.400;10.886;2023-02-18T00:41:14;2.10;;;0.90;;
49450;SDS011;35336;48.400;10.886;2023-02-18T00:41:30;1.27;;;0.93;;
49450;SDS011;35336;48.400;10.886;2023-02-18T00:41:45;2.30;;;1.00;;
49450;SDS011;35336;48.400;10.886;2023-02-18T00:42:00;2.10;;;0.90;;
49450;SDS011;35336;48.400;10.886;2023-02-18T00:42:16;1.30;;;0.80;;
49450;SDS011;35336;48.400;10.886;2023-02-18T00:42:31;2.03;;;1.00;;
49450;SDS011;35336;48.400;10.886;2023-02-18T00:42:46;2.15;;;1.13;;
49450;SDS011;35336;48.400;10.886;2023-02-18T00:43:02;2.00;;;1.17;;
49450;SDS011;35336;48.400;10.886;2023-02-18T00:43:17;2.27;;;1.10;;
49450;SDS011;35336;48.400;10.886;2023-02-18T00:43:32;2.63;;;1.10;;
49450;SDS011;35336;48.400;10.886;2023-02-18T00:43:48;1.97;;;1.00;;
49450;SDS011;35336;48.400;10.886;2023-02-18T00:44:04;1.38;;;0.90;;
49450;SDS011;35336;48.400;10.886;2023-02-18T00:44:20;1.55;;;0.90;;
49450;SDS011;35336;48.400;10.886;2023-02-18T00:44:35;1.88;;;1.23;;
49450;SDS011;35336;48.400;10.886;2023-02-18T00:44:51;1.90;;;1.17;;
49450;SDS011;35336;48.400;10.886;2023-02-18T00:45:06;1.70;;;1.00;;
49450;SDS011;35336;48.400;10.886;2023-02-18T00:45:22;2.53;;;1.02;;
49450;SDS011;35336;48.400;10.886;2023-02-18T00:45:37;2.93;;;1.00;;
49450;SDS011;35336;48.400;10.886;2023-02-18T00:45:52;2.20;;;0.95;;
49450;SDS011;35336;48.400;10.886;2023-02-18T00:46:08;1.60;;;0.97;;
49450;SDS011;35336;48.400;10.886;2023-02-18T00:46:23;2.60;;;0.98;;
49450;SDS011;35336;48.400;10.886;2023-02-18T00:46:39;2.45;;;0.90;;
49450;SDS011;35336;48.400;10.886;2023-02-18T00:46:55;1.83;;;0.90;;
49450;SDS011;35336;48.400;10.886;2023-02-18T00:47:10;3.45;;;0.90;;
49450;SDS011;35336;48.400;10.886;2023-02-18T00:47:26;2.83;;;0.87;;
49450;SDS011;35336;48.400;10.886;2023-02-18T00:47:41;1.33;;;0.80;;
49450;SDS011;35336;48.400;10.886;2023-02-18T00:47:56;1.92;;;0.90;;
49450;SDS011;35336;48.400;10.886;2023-02-18T00:48:12;2.90;;;0.93;;
49450;SDS011;35336;48.400;10.886;2023-02-18T00:48:27;2.80;;;1.10;;
49450;SDS011;35336;48.400;10.886;2023-02-18T00:48:42;2.53;;;1.30;;
49450;SDS011;35336;48.400;10.886;2023-02-18T00:48:58;2.58;;;1.25;;
49450;SDS011;35336;48.400;10.886;2023-02-18T00:49:14;1.77;;;1.00;;
49450;SDS011;35336;48.400;10.886;2023-02-18T00:49:30;1.70;;;0.88;;
49450;SDS011;35336;48.400;10.886;2023-02-18T00:49:45;2.30;;;0.85;;
49450;SDS011;35336;48.400;10.886;2023-02-18T00:50:01;2.20;;;0.87;;
49450;SDS011;35336;48.400;10.886;2023-02-18T00:50:16;1.80;;;0.70;;
49450;SDS011;35336;48.400;10.886;2023-02-18T00:50:31;2.25;;;0.88;;
49450;SDS011;35336;48.400;10.886;2023-02-18T00:50:47;2.27;;;0.90;;
49450;SDS011;35336;48.400;10.886;2023-02-18T00:51:02;1.50;;;0.77;;
49450;SDS011;35336;48.400;10.886;2023-02-18T00:51:18;1.02;;;0.80;;
49450;SDS011;35336;48.400;10.886;2023-02-18T00:51:34;1.77;;;0.90;;
49450;SDS011;35336;48.400;10.886;2023-02-18T00:51:50;1.83;;;1.00;;
49450;SDS011;35336;48.400;10.886;2023-02-18T00:52:05;2.05;;;1.17;;
49450;SDS011;35336;48.400;10.886;2023-02-18T00:52:20;2.13;;;1.17;;
49450;SDS011;35336;48.400;10.886;2023-02-18T00:52:36;1.97;;;1.00;;
49450;SDS011;35336;48.400;10.886;2023-02-18T00:52:51;2.00;;;1.00;;
49450;SDS011;35336;48.400;10.886;2023-02-18T00:53:06;1.50;;;0.90;;
49450;SDS011;35336;48.400;10.886;2023-02-18T00:53:22;1.23;;;0.80;;
49450;SDS011;35336;48.400;10.886;2023-02-18T00:53:37;2.97;;;0.90;;
49450;SDS011;35336;48.400;10.886;2023-02-18T00:53:53;4.43;;;1.00;;
49450;SDS011;35336;48.400;10.886;2023-02-18T00:54:09;3.00;;;1.00;;
49450;SDS011;35336;48.400;10.886;2023-02-18T00:54:24;1.80;;;1.00;;
49450;SDS011;35336;48.400;10.886;2023-02-18T00:54:39;2.10;;;1.05;;
49450;SDS011;35336;48.400;10.886;2023-02-18T00:54:55;2.20;;;1.03;;
49450;SDS011;35336;48.400;10.886;2023-02-18T00:55:10;1.98;;;0.93;;
49450;SDS011;35336;48.400;10.886;2023-02-18T00:55:25;2.03;;;0.90;;
49450;SDS011;35336;48.400;10.886;2023-02-18T00:55:41;2.23;;;0.90;;
49450;SDS011;35336;48.400;10.886;2023-02-18T00:55:58;2.30;;;0.90;;
49450;SDS011;35336;48.400;10.886;2023-02-18T00:56:14;1.33;;;0.90;;
49450;SDS011;35336;48.400;10.886;2023-02-18T00:56:29;1.20;;;0.90;;
49450;SDS011;35336;48.400;10.886;2023-02-18T00:56:44;1.47;;;0.77;;
49450;SDS011;35336;48.400;10.886;2023-02-18T00:57:00;1.77;;;0.83;;
49450;SDS011;35336;48.400;10.886;2023-02-18T00:57:15;2.03;;;1.03;;
49450;SDS011;35336;48.400;10.886;2023-02-18T00:57:30;2.78;;;1.00;;
49450;SDS011;35336;48.400;10.886;2023-02-18T00:57:45;2.83;;;1.10;;
49450;SDS011;35336;48.400;10.886;2023-02-18T00:58:01;2.87;;;0.93;;
49450;SDS011;35336;48.400;10.886;2023-02-18T00:58:16;4.35;;;0.73;;
49450;SDS011;35336;48.400;10.886;2023-02-18T00:58:32;4.07;;;1.00;;
49450;SDS011;35336;48.400;10.886;2023-02-18T00:58:49;2.35;;;1.08;;
49450;SDS011;35336;48.400;10.886;2023-02-18T00:59:05;1.50;;;0.90;;
49450;SDS011;35336;48.400;10.886;2023-02-18T00:59:20;1.27;;;0.95;;
49450;SDS011;35336;48.400;10.886;2023-02-18T00:59:35;2.50;;;1.10;;
49450;SDS011;35336;48.400;10.886;2023-02-18T00:59:51;2.30;;;1.07;;
49450;SDS011;35336;48.400;10.886;2023-02-18T01:00:07;1.95;;;1.00;;
49450;SDS011;35336;48.400;10.886;2023-02-18T01:00:23;3.45;;;1.10;;
49450;SDS011;35336;48.400;10.886;2023-02-18T01:00:38;2.17;;;0.90;;
49450;SDS011;35336;48.400;10.886;2023-02-18T01:00:53;1.67;;;0.70;;
49450;SDS011;35336;48.400;10.886;2023-02-18T01:01:09;1.95;;;0.80;;
49450;SDS011;35336;48.400;10.886;2023-02-18T01:01:25;2.40;;;1.08;;
49450;SDS011;35336;48.400;10.886;2023-02-18T01:01:41;2.47;;;1.08;;
49450;SDS011;35336;48.400;10.886;2023-02-18T01:01:56;2.80;;;0.80;;
49450;SDS011;35336;48.400;10.886;2023-02-18T01:02:11;2.60;;;0.80;;
49450;SDS011;35336;48.400;10.886;2023-02-18T01:02:27;1.37;;;0.90;;
49450;SDS011;35336;48.400;10.886;2023-02-18T01:02:42;2.22;;;1.13;;
49450;SDS011;35336;48.400;10.886;2023-02-18T01:02:57;2.57;;;1.10;;
49450;SDS011;35336;48.400;10.886;2023-02-18T01:03:13;1.47;;;0.87;;
49450;SDS011;35336;48.400;10.886;2023-02-18T01:03:29;2.03;;;0.93;;
49450;SDS011;35336;48.400;10.886;2023-02-18T01:03:44;1.92;;;0.90;;
49450;SDS011;35336;48.400;10.886;2023-02-18T01:03:59;2.67;;;0.90;;
49450;SDS011;35336;48.400;10.886;2023-02-18T01:04:15;3.15;;;1.00;;
49450;SDS011;35336;48.400;10.886;2023-02-18T01:04:30;1.73;;;0.90;;
49450;SDS011;35336;48.400;10.886;2023-02-18T01:04:45;2.17;;;1.10;;
49450;SDS011;35336;48.400;10.886;2023-02-18T01:05:01;2.33;;;1.00;;
49450;SDS011;35336;48.400;10.886;2023-02-18T01:05:16;1.67;;;0.82;;
49450;SDS011;35336;48.400;10.886;2023-02-18T01:05:31;2.60;;;0.90;;
49450;SDS011;35336;48.400;10.886;2023-02-18T01:05:48;2.47;;;0.90;;
49450;SDS011;35336;48.400;10.886;2023-02-18T01:06:04;2.45;;;0.95;;
49450;SDS011;35336;48.400;10.886;2023-02-18T01:06:20;2.20;;;0.80;;
49450;SDS011;35336;48.400;10.886;2023-02-18T01:06:36;1.38;;;0.93;;
49450;SDS011;35336;48.400;10.886;2023-02-18T01:06:51;1.97;;;1.30;;
49450;SDS011;35336;48.400;10.886;2023-02-18T01:07:06;2.37;;;1.20;;
49450;SDS011;35336;48.400;10.886;2023-02-18T01:07:22;3.30;;;1.05;;
49450;SDS011;35336;48.400;10.886;2023-02-18T01:07:37;2.37;;;0.87;;
49450;SDS011;35336;48.400;10.886;2023-02-18T01:07:52;1.30;;;0.80;;
49450;SDS011;35336;48.400;10.886;2023-02-18T01:08:08;1.52;;;0.90;;
49450;SDS011;35336;48.400;10.886;2023-02-18T01:08:24;1.48;;;0.93;;
49450;SDS011;35336;48.400;10.886;2023-02-18T01:08:40;1.52;;;0.80;;
49450;SDS011;35336;48.400;10.886;2023-02-18T01:08:56;2.67;;;0.88;;
49450;SDS011;35336;48.400;10.886;2023-02-18T01:09:11;2.47;;;0.87;;
49450;SDS011;35336;48.400;10.886;2023-02-18T01:09:26;1.77;;;0.80;;
49450;SDS011;35336;48.400;10.886;2023-02-18T01:09:42;2.63;;;1.00;;
49450;SDS011;35336;48.400;10.886;2023-02-18T01:09:57;2.40;;;1.00;;
49450;SDS011;35336;48.400;10.886;2023-02-18T01:10:12;1.33;;;0.80;;
49450;SDS011;35336;48.400;10.886;2023-02-18T01:10:28;2.13;;;0.80;;
49450;SDS011;35336;48.400;10.886;2023-02-18T01:10:44;2.03;;;0.80;;
49450;SDS011;35336;48.400;10.886;2023-02-18T01:11:01;1.40;;;0.88;;
49450;SDS011;35336;48.400;10.886;2023-02-18T01:11:18;1.58;;;0.98;;
49450;SDS011;35336;48.400;10.886;2023-02-18T01:11:33;2.22;;;1.02;;
49450;SDS011;35336;48.400;10.886;2023-02-18T01:11:48;2.60;;;1.00;;
49450;SDS011;35336;48.400;10.886;2023-02-18T01:12:04;2.83;;;1.02;;
49450;SDS011;35336;48.400;10.886;2023-02-18T01:12:19;2.87;;;1.00;;
49450;SDS011;35336;48.400;10.886;2023-02-18T01:12:35;1.40;;;0.67;;
49450;SDS011;35336;48.400;10.886;2023-02-18T01:12:50;1.10;;;0.70;;
49450;SDS011;35336;48.400;10.886;2023-02-18T01:13:05;2.20;;;0.90;;
49450;SDS011;35336;48.400;10.886;2023-02-18T01:13:20;2.47;;;1.00;;
49450;SDS011;35336;48.400;10.886;2023-02-18T01:13:36;2.03;;;1.00;;
49450;SDS011;35336;48.400;10.886;2023-02-18T01:13:52;2.25;;;0.95;;
49450;SDS011;35336;48.400;10.886;2023-02-18T01:14:08;2.05;;;0.93;;
49450;SDS011;35336;48.400;10.886;2023-02-18T01:14:23;2.10;;;1.00;;
49450;SDS011;35336;48.400;10.886;2023-02-18T01:14:38;1.60;;;1.00;;
49450;SDS011;35336;48.400;10.886;2023-02-18T01:14:54;1.60;;;1.08;;
49450;SDS011;35336;48.400;10.886;2023-02-18T01:15:10;1.67;;;0.97;;
49450;SDS011;35336;48.400;10.886;2023-02-18T01:15:27;1.85;;;0.90;;
49450;SDS011;35336;48.400;10.886;2023-02-18T01:15:43;2.35;;;1.20;;
49450;SDS011;35336;48.400;10.886;2023-02-18T01:15:58;1.83;;;0.90;;
49450;SDS011;35336;48.400;10.886;2023-02-18T01:16:13;1.70;;;0.90;;
49450;SDS011;35336;48.400;10.886;2023-02-18T01:16:29;2.15;;;0.90;;
49450;SDS011;35336;48.400;10.886;2023-02-18T01:16:44;1.73;;;0.80;;
49450;SDS011;35336;48.400;10.886;2023-02-18T01:16:59;1.10;;;0.87;;
49450;SDS011;35336;48.400;10.886;2023-02-18T01:17:15;1.83;;;0.90;;
49450;SDS011;35336;48.400;10.886;2023-02-18T01:17:30;2.47;;;0.97;;
49450;SDS011;35336;48.400;10.886;2023-02-18T01:17:45;2.38;;;1.00;;
49450;SDS011;35336;48.400;10.886;2023-02-18T01:18:01;1.77;;;0.83;;
49450;SDS011;35336;48.400;10.886;2023-02-18T01:18:16;1.57;;;0.80;;
49450;SDS011;35336;48.400;10.886;2023-02-18T01:18:32;1.83;;;1.00;;
49450;SDS011;35336;48.400;10.886;2023-02-18T01:18:47;1.90;;;1.07;;
49450;SDS011;35336;48.400;10.886;2023-02-18T01:19:03;1.67;;;0.90;;
49450;SDS011;35336;48.400;10.886;2023-02-18T01:19:18;2.57;;;1.17;;
49450;SDS011;35336;48.400;10.886;2023-02-18T01:19:33;2.80;;;1.30;;
49450;SDS011;35336;48.400;10.886;2023-02-18T01:19:49;2.28;;;1.05;;
49450;SDS011;35336;48.400;10.886;2023-02-18T01:20:04;2.13;;;0.93;;
49450;SDS011;35336;48.400;10.886;2023-02-18T01:20:20;1.27;;;0.82;;
49450;SDS011;35336;48.400;10.886;2023-02-18T01:20:37;2.07;;;0.77;;
49450;SDS011;35336;48.400;10.886;2023-02-18T01:20:53;2.00;;;0.63;;
49450;SDS011;35336;48.400;10.886;2023-02-18T01:21:09;1.53;;;0.70;;
49450;SDS011;35336;48.400;10.886;2023-02-18T01:21:25;1.35;;;0.80;;
49450;SDS011;35336;48.400;10.886;2023-02-18T01:21:40;1.30;;;0.90;;
49450;SDS011;35336;48.400;10.886;2023-02-18T01:21:55;2.77;;;0.90;;
49450;SDS011;35336;48.400;10.886;2023-02-18T01:22:11;2.83;;;0.90;;
49450;SDS011;35336;48.400;10.886;2023-02-18T01:22:26;1.60;;;1.00;;
49450;SDS011;35336;48.400;10.886;2023-02-18T01:22:41;1.57;;;0.87;;
49450;SDS011;35336;48.400;10.886;2023-02-18T01:22:57;1.45;;;0.80;;
49450;SDS011;35336;48.400;10.886;2023-02-18T01:23:12;1.20;;;0.90;;
49450;SDS011;35336;48.400;10.886;2023-02-18T01:23:28;1.25;;;0.90;;
49450;SDS011;35336;48.400;10.886;2023-02-18T01:23:43;1.73;;;0.90;;
49450;SDS011;35336;48.400;10.886;2023-02-18T01:23:59;2.20;;;1.10;;
49450;SDS011;35336;48.400;10.886;2023-02-18T01:24:14;3.40;;;1.10;;
49450;SDS011;35336;48.400;10.886;2023-02-18T01:24:29;2.72;;;0.88;;
49450;SDS011;35336;48.400;10.886;2023-02-18T01:24:45;1.03;;;0.90;;
49450;SDS011;35336;48.400;10.886;2023-02-18T01:25:00;1.10;;;0.80;;
49450;SDS011;35336;48.400;10.886;2023-02-18T01:25:15;1.67;;;0.70;;
49450;SDS011;35336;48.400;10.886;2023-02-18T01:25:31;1.87;;;0.77;;
49450;SDS011;35336;48.400;10.886;2023-02-18T01:25:47;1.50;;;0.90;;
49450;SDS011;35336;48.400;10.886;2023-02-18T01:26:03;1.83;;;0.98;;
49450;SDS011;35336;48.400;10.886;2023-02-18T01:26:19;2.10;;;1.02;;
49450;SDS011;35336;48.400;10.886;2023-02-18T01:26:34;1.80;;;0.90;;
49450;SDS011;35336;48.400;10.886;2023-02-18T01:26:49;1.58;;;0.80;;
49450;SDS011;35336;48.400;10.886;2023-02-18T01:27:05;1.50;;;0.80;;
49450;SDS011;35336;48.400;10.886;2023-02-18T01:27:20;2.37;;;1.00;;
49450;SDS011;35336;48.400;10.886;2023-02-18T01:27:36;2.28;;;0.95;;
49450;SDS011;35336;48.400;10.886;2023-02-18T01:27:51;1.40;;;0.80;;
49450;SDS011;35336;48.400;10.886;2023-02-18T01:28:07;2.30;;;0.80;;
49450;SDS011;35336;48.400;10.886;2023-02-18T01:28:23;3.05;;;0.80;;
49450;SDS011;35336;48.400;10.886;2023-02-18T01:28:39;2.15;;;0.88;;
49450;SDS011;35336;48.400;10.886;2023-02-18T01:28:55;1.52;;;0.95;;
49450;SDS011;35336;48.400;10.886;2023-02-18T01:29:10;1.30;;;0.90;;
49450;SDS011;35336;48.400;10.886;2023-02-18T01:29:25;2.45;;;0.80;;
49450;SDS011;35336;48.400;10.886;2023-02-18T01:29:41;2.73;;;1.00;;
49450;SDS011;35336;48.400;10.886;2023-02-18T01:29:56;2.23;;;1.00;;
49450;SDS011;35336;48.400;10.886;2023-02-18T01:30:13;1.67;;;0.90;;
49450;SDS011;35336;48.400;10.886;2023-02-18T01:30:30;2.80;;;1.00;;
49450;SDS011;35336;48.400;10.886;2023-02-18T01:30:45;2.77;;;1.00;;
49450;SDS011;35336;48.400;10.886;2023-02-18T01:31:05;1.50;;;0.80;;
49450;SDS011;35336;48.400;10.886;2023-02-18T01:31:22;2.85;;;1.40;;
49450;SDS011;35336;48.400;10.886;2023-02-18T01:31:37;2.57;;;1.40;;
49450;SDS011;35336;48.400;10.886;2023-02-18T01:31:52;2.00;;;1.00;;
49450;SDS011;35336;48.400;10.886;2023-02-18T01:32:08;2.17;;;1.27;;
49450;SDS011;35336;48.400;10.886;2023-02-18T01:32:23;3.33;;;1.20;;
49450;SDS011;35336;48.400;10.886;2023-02-18T01:32:38;3.23;;;0.90;;
49450;SDS011;35336;48.400;10.886;2023-02-18T01:32:54;1.70;;;0.90;;
49450;SDS011;35336;48.400;10.886;2023-02-18T01:33:10;1.70;;;0.98;;